PTPSB SBSR-SBCN
Flight info
| Callsign | PTPSB |
|---|---|
| Flight time | 0h 40m |
| Altitude | 28000 |
| Route | MEVIK UZ5 VUDOT |
| Aircraft | E135/L-L/2000 |
Departure
| Time | 2026-05-07 18:42 |
|---|---|
| Airport | Prof. Eribelto Manoel Reino State Airport (SBSR) |
Arrival
| Time | 2026-05-07 19:22 |
|---|---|
| Airport | Nelson Ribeiro Guimarães Airport (SBCN) |
| Time | Latitude | Longitude | Altitude | Speed | Heading |
|---|---|---|---|---|---|
| 2026-05-07 18:18 | -20.81511 | -49.40754 | 1748 ft | 0 kts | 112° |
| 2026-05-07 18:38 | -20.81512 | -49.40751 | 1748 ft | 0 kts | 112° |
| 2026-05-07 18:38 | -20.81513 | -49.40748 | 1748 ft | 0 kts | 112° |
| 2026-05-07 18:38 | -20.81514 | -49.40745 | 1749 ft | 0 kts | 112° |
| 2026-05-07 18:38 | -20.81521 | -49.40734 | 1750 ft | 2 kts | 140° |
| 2026-05-07 18:39 | -20.81548 | -49.40743 | 1752 ft | 7 kts | 220° |
| 2026-05-07 18:39 | -20.81592 | -49.40799 | 1757 ft | 12 kts | 230° |
| 2026-05-07 18:39 | -20.81659 | -49.40888 | 1761 ft | 15 kts | 231° |
| 2026-05-07 18:39 | -20.81722 | -49.40973 | 1765 ft | 12 kts | 231° |
| 2026-05-07 18:40 | -20.81764 | -49.41028 | 1773 ft | 7 kts | 230° |
| 2026-05-07 18:40 | -20.81805 | -49.41082 | 1776 ft | 11 kts | 230° |
| 2026-05-07 18:40 | -20.81871 | -49.41166 | 1780 ft | 16 kts | 227° |
| 2026-05-07 18:40 | -20.81947 | -49.41254 | 1782 ft | 15 kts | 227° |
| 2026-05-07 18:41 | -20.82036 | -49.41304 | 1785 ft | 14 kts | 173° |
| 2026-05-07 18:41 | -20.82127 | -49.41288 | 1786 ft | 11 kts | 154° |
| 2026-05-07 18:41 | -20.82141 | -49.41267 | 1786 ft | 0 kts | 52° |
| 2026-05-07 18:42 | -20.82135 | -49.41259 | 1786 ft | 9 kts | 52° |
| 2026-05-07 18:42 | -20.81912 | -49.40963 | 1773 ft | 94 kts | 51° |
| 2026-05-07 18:42 | -20.81352 | -49.40215 | 1916 ft | 155 kts | 50° |
| 2026-05-07 18:42 | -20.80628 | -49.39243 | 2722 ft | 176 kts | 54° |
| 2026-05-07 18:43 | -20.80077 | -49.38170 | 3744 ft | 171 kts | 61° |
| 2026-05-07 18:43 | -20.79652 | -49.36762 | 3730 ft | 229 kts | 82° |
| 2026-05-07 18:43 | -20.79600 | -49.34918 | 4182 ft | 263 kts | 84° |
| 2026-05-07 18:43 | -20.79334 | -49.33015 | 5483 ft | 261 kts | 78° |
| 2026-05-07 18:44 | -20.78844 | -49.31198 | 6731 ft | 260 kts | 62° |
| 2026-05-07 18:44 | -20.77679 | -49.29722 | 7772 ft | 266 kts | 47° |
| 2026-05-07 18:44 | -20.76394 | -49.28313 | 8756 ft | 272 kts | 46° |
| 2026-05-07 18:44 | -20.75055 | -49.26889 | 9748 ft | 277 kts | 46° |
| 2026-05-07 18:45 | -20.73666 | -49.25429 | 10666 ft | 285 kts | 46° |
| 2026-05-07 18:45 | -20.72232 | -49.23933 | 11274 ft | 302 kts | 45° |
| 2026-05-07 18:45 | -20.70670 | -49.22309 | 11915 ft | 319 kts | 45° |
| 2026-05-07 18:45 | -20.69067 | -49.20647 | 12656 ft | 331 kts | 45° |
| 2026-05-07 18:46 | -20.67397 | -49.18918 | 13622 ft | 335 kts | 46° |
| 2026-05-07 18:46 | -20.65743 | -49.17205 | 14543 ft | 338 kts | 46° |
| 2026-05-07 18:46 | -20.64053 | -49.15455 | 15383 ft | 344 kts | 46° |
| 2026-05-07 18:46 | -20.62320 | -49.13660 | 16195 ft | 350 kts | 46° |
| 2026-05-07 18:47 | -20.60580 | -49.11859 | 16989 ft | 355 kts | 46° |
| 2026-05-07 18:47 | -20.58808 | -49.10025 | 17764 ft | 360 kts | 46° |
| 2026-05-07 18:47 | -20.56996 | -49.08151 | 18601 ft | 363 kts | 46° |
| 2026-05-07 18:47 | -20.55186 | -49.06280 | 19560 ft | 361 kts | 46° |
| 2026-05-07 18:48 | -20.53400 | -49.04433 | 20437 ft | 360 kts | 46° |
| 2026-05-07 18:48 | -20.51603 | -49.02576 | 21245 ft | 361 kts | 46° |
| 2026-05-07 18:48 | -20.49817 | -49.00731 | 22026 ft | 361 kts | 46° |
| 2026-05-07 18:48 | -20.48023 | -48.98879 | 22800 ft | 361 kts | 46° |
| 2026-05-07 18:49 | -20.46224 | -48.97022 | 23554 ft | 361 kts | 45° |
| 2026-05-07 18:49 | -20.44431 | -48.95172 | 24280 ft | 361 kts | 45° |
| 2026-05-07 18:49 | -20.42614 | -48.93298 | 24988 ft | 361 kts | 45° |
| 2026-05-07 18:49 | -20.40819 | -48.91447 | 25665 ft | 361 kts | 45° |
| 2026-05-07 18:50 | -20.39024 | -48.89597 | 26341 ft | 360 kts | 45° |
| 2026-05-07 18:50 | -20.37231 | -48.87749 | 26997 ft | 360 kts | 44° |
| 2026-05-07 18:50 | -20.35438 | -48.85902 | 27629 ft | 359 kts | 44° |
| 2026-05-07 18:50 | -20.33611 | -48.84022 | 27944 ft | 370 kts | 44° |
| 2026-05-07 18:51 | -20.31724 | -48.82084 | 27978 ft | 388 kts | 44° |
| 2026-05-07 18:51 | -20.29739 | -48.80048 | 27986 ft | 407 kts | 42° |
| 2026-05-07 18:51 | -20.27271 | -48.78417 | 27994 ft | 421 kts | 19° |
| 2026-05-07 18:51 | -20.24382 | -48.77799 | 28026 ft | 431 kts | 5° |
| 2026-05-07 18:52 | -20.21386 | -48.77446 | 28013 ft | 439 kts | 4° |
| 2026-05-07 18:52 | -20.15298 | -48.76796 | 28030 ft | 442 kts | 4° |
| 2026-05-07 18:53 | -20.09155 | -48.76152 | 28036 ft | 446 kts | 4° |
| 2026-05-07 18:53 | -20.02979 | -48.75506 | 28039 ft | 450 kts | 4° |
| 2026-05-07 18:54 | -19.96738 | -48.74852 | 28041 ft | 453 kts | 4° |
| 2026-05-07 18:54 | -19.90454 | -48.74197 | 28047 ft | 456 kts | 4° |
| 2026-05-07 18:55 | -19.84131 | -48.73537 | 28046 ft | 458 kts | 4° |
| 2026-05-07 18:55 | -19.77782 | -48.72875 | 28047 ft | 460 kts | 4° |
| 2026-05-07 18:56 | -19.71411 | -48.72211 | 28047 ft | 462 kts | 4° |
| 2026-05-07 18:56 | -19.65043 | -48.71548 | 28048 ft | 463 kts | 4° |
| 2026-05-07 18:57 | -19.58628 | -48.70880 | 28048 ft | 465 kts | 4° |
| 2026-05-07 18:57 | -19.52203 | -48.70213 | 28048 ft | 466 kts | 4° |
| 2026-05-07 18:58 | -19.45798 | -48.69548 | 28056 ft | 466 kts | 4° |
| 2026-05-07 18:58 | -19.39343 | -48.68877 | 28067 ft | 467 kts | 4° |
| 2026-05-07 18:59 | -19.32857 | -48.68205 | 28076 ft | 468 kts | 4° |
| 2026-05-07 18:59 | -19.26415 | -48.67537 | 28076 ft | 468 kts | 4° |
| 2026-05-07 19:00 | -19.19932 | -48.66866 | 28073 ft | 469 kts | 4° |
| 2026-05-07 19:00 | -19.13452 | -48.66240 | 28076 ft | 468 kts | 3° |
| 2026-05-07 19:01 | -19.07017 | -48.65654 | 28075 ft | 464 kts | 3° |
| 2026-05-07 19:01 | -19.00635 | -48.65076 | 28075 ft | 460 kts | 4° |
| 2026-05-07 19:02 | -18.94318 | -48.64504 | 28076 ft | 458 kts | 4° |
| 2026-05-07 19:02 | -18.88032 | -48.63927 | 28074 ft | 451 kts | 3° |
| 2026-05-07 19:03 | -18.81840 | -48.63369 | 28074 ft | 446 kts | 3° |
| 2026-05-07 19:03 | -18.75689 | -48.62812 | 28031 ft | 439 kts | 3° |
| 2026-05-07 19:03 | -18.72723 | -48.62542 | 27372 ft | 421 kts | 3° |
| 2026-05-07 19:04 | -18.69859 | -48.62285 | 26479 ft | 410 kts | 3° |
| 2026-05-07 19:04 | -18.67074 | -48.62033 | 25619 ft | 398 kts | 3° |
| 2026-05-07 19:04 | -18.64390 | -48.61789 | 25107 ft | 380 kts | 3° |
| 2026-05-07 19:04 | -18.61823 | -48.61557 | 24646 ft | 363 kts | 3° |
| 2026-05-07 19:05 | -18.59340 | -48.61333 | 24293 ft | 357 kts | 3° |
| 2026-05-07 19:05 | -18.56904 | -48.61113 | 23945 ft | 354 kts | 4° |
| 2026-05-07 19:05 | -18.54474 | -48.60893 | 23595 ft | 351 kts | 4° |
| 2026-05-07 19:05 | -18.52062 | -48.60675 | 23246 ft | 349 kts | 4° |
| 2026-05-07 19:06 | -18.49663 | -48.60459 | 22897 ft | 347 kts | 4° |
| 2026-05-07 19:06 | -18.45017 | -48.60039 | 22215 ft | 344 kts | 4° |
| 2026-05-07 19:06 | -18.42631 | -48.59824 | 21863 ft | 342 kts | 4° |
| 2026-05-07 19:07 | -18.40280 | -48.59612 | 21514 ft | 341 kts | 4° |
| 2026-05-07 19:07 | -18.37910 | -48.59398 | 21162 ft | 340 kts | 4° |
| 2026-05-07 19:07 | -18.35571 | -48.59187 | 20806 ft | 339 kts | 4° |
| 2026-05-07 19:07 | -18.33252 | -48.58978 | 20381 ft | 338 kts | 5° |
| 2026-05-07 19:08 | -18.30943 | -48.58737 | 19941 ft | 337 kts | 10° |
| 2026-05-07 19:08 | -18.28695 | -48.57982 | 19207 ft | 336 kts | 19° |
| 2026-05-07 19:08 | -18.26534 | -48.57172 | 18280 ft | 336 kts | 19° |
| 2026-05-07 19:08 | -18.24404 | -48.56358 | 17203 ft | 311 kts | 20° |
| 2026-05-07 19:09 | -18.22505 | -48.55629 | 16188 ft | 285 kts | 20° |
| 2026-05-07 19:09 | -18.20698 | -48.54934 | 15323 ft | 276 kts | 21° |
| 2026-05-07 19:09 | -18.18899 | -48.54240 | 15071 ft | 275 kts | 21° |
| 2026-05-07 19:09 | -18.17104 | -48.53549 | 14800 ft | 280 kts | 21° |
| 2026-05-07 19:10 | -18.15259 | -48.52838 | 14538 ft | 287 kts | 21° |
| 2026-05-07 19:10 | -18.13369 | -48.52111 | 14261 ft | 288 kts | 21° |
| 2026-05-07 19:10 | -18.11501 | -48.51392 | 13946 ft | 289 kts | 21° |
| 2026-05-07 19:10 | -18.09608 | -48.50664 | 13593 ft | 289 kts | 21° |
| 2026-05-07 19:11 | -18.07735 | -48.49944 | 13222 ft | 290 kts | 21° |
| 2026-05-07 19:11 | -18.05850 | -48.49219 | 12815 ft | 287 kts | 21° |
| 2026-05-07 19:11 | -18.03986 | -48.48502 | 12409 ft | 284 kts | 21° |
| 2026-05-07 19:11 | -18.02117 | -48.47784 | 12000 ft | 282 kts | 21° |
| 2026-05-07 19:12 | -18.00265 | -48.47072 | 11593 ft | 280 kts | 21° |
| 2026-05-07 19:12 | -17.98440 | -48.46370 | 11189 ft | 278 kts | 21° |
| 2026-05-07 19:12 | -17.96638 | -48.45678 | 10788 ft | 277 kts | 21° |
| 2026-05-07 19:12 | -17.94852 | -48.44992 | 10428 ft | 275 kts | 21° |
| 2026-05-07 19:13 | -17.93055 | -48.44302 | 10073 ft | 274 kts | 21° |
| 2026-05-07 19:13 | -17.91254 | -48.43611 | 9716 ft | 272 kts | 21° |
| 2026-05-07 19:13 | -17.89479 | -48.42930 | 9364 ft | 272 kts | 20° |
| 2026-05-07 19:13 | -17.87701 | -48.42248 | 9013 ft | 271 kts | 20° |
| 2026-05-07 19:14 | -17.85950 | -48.41576 | 8666 ft | 270 kts | 20° |
| 2026-05-07 19:14 | -17.84178 | -48.40897 | 8313 ft | 269 kts | 20° |
| 2026-05-07 19:14 | -17.82457 | -48.40237 | 7960 ft | 260 kts | 20° |
| 2026-05-07 19:14 | -17.80786 | -48.39596 | 7599 ft | 251 kts | 20° |
| 2026-05-07 19:15 | -17.79169 | -48.38976 | 7240 ft | 244 kts | 20° |
| 2026-05-07 19:15 | -17.77587 | -48.38370 | 6880 ft | 238 kts | 20° |
| 2026-05-07 19:15 | -17.76052 | -48.37781 | 6554 ft | 231 kts | 20° |
| 2026-05-07 19:15 | -17.74576 | -48.37217 | 6253 ft | 227 kts | 19° |
| 2026-05-07 19:16 | -17.73051 | -48.36950 | 5953 ft | 222 kts | 349° |
| 2026-05-07 19:16 | -17.71788 | -48.37701 | 5915 ft | 200 kts | 321° |
| 2026-05-07 19:16 | -17.70769 | -48.38607 | 5696 ft | 188 kts | 321° |
| 2026-05-07 19:16 | -17.69808 | -48.39502 | 5431 ft | 181 kts | 320° |
| 2026-05-07 19:17 | -17.68890 | -48.40377 | 5169 ft | 175 kts | 320° |
| 2026-05-07 19:17 | -17.68020 | -48.41220 | 4999 ft | 166 kts | 319° |
| 2026-05-07 19:17 | -17.67199 | -48.42021 | 4977 ft | 156 kts | 319° |
| 2026-05-07 19:17 | -17.66427 | -48.42779 | 4951 ft | 148 kts | 319° |
| 2026-05-07 19:18 | -17.65869 | -48.43631 | 4892 ft | 144 kts | 288° |
| 2026-05-07 19:18 | -17.65987 | -48.44671 | 4706 ft | 147 kts | 252° |
| 2026-05-07 19:18 | -17.66370 | -48.45699 | 4496 ft | 152 kts | 252° |
| 2026-05-07 19:18 | -17.66761 | -48.46706 | 4411 ft | 149 kts | 251° |
| 2026-05-07 19:19 | -17.67163 | -48.47720 | 4364 ft | 149 kts | 251° |
| 2026-05-07 19:19 | -17.67567 | -48.48721 | 4261 ft | 154 kts | 251° |
| 2026-05-07 19:19 | -17.67997 | -48.49777 | 4107 ft | 160 kts | 250° |
| 2026-05-07 19:19 | -17.68427 | -48.50817 | 3949 ft | 147 kts | 250° |
| 2026-05-07 19:20 | -17.68820 | -48.51763 | 3743 ft | 141 kts | 251° |
| 2026-05-07 19:20 | -17.69211 | -48.52705 | 3561 ft | 139 kts | 251° |
| 2026-05-07 19:20 | -17.69592 | -48.53625 | 3385 ft | 138 kts | 251° |
| 2026-05-07 19:20 | -17.69972 | -48.54537 | 3208 ft | 137 kts | 251° |
| 2026-05-07 19:21 | -17.70355 | -48.55457 | 3054 ft | 135 kts | 251° |
| 2026-05-07 19:21 | -17.70728 | -48.56354 | 2899 ft | 135 kts | 251° |
| 2026-05-07 19:21 | -17.71105 | -48.57257 | 2739 ft | 134 kts | 251° |
| 2026-05-07 19:21 | -17.71477 | -48.58152 | 2591 ft | 133 kts | 251° |
| 2026-05-07 19:22 | -17.71859 | -48.59046 | 2414 ft | 136 kts | 250° |
| 2026-05-07 19:22 | -17.72237 | -48.59951 | 2275 ft | 134 kts | 252° |
| 2026-05-07 19:22 | -17.72555 | -48.60745 | 2286 ft | 86 kts | 245° |
| 2026-05-07 19:22 | -17.72701 | -48.61099 | 2302 ft | 41 kts | 249° |
| 2026-05-07 19:23 | -17.72799 | -48.61327 | 2310 ft | 20 kts | 260° |
| 2026-05-07 19:23 | -17.72765 | -48.61376 | 2313 ft | 0 kts | 339° |
| 2026-05-07 19:23 | -17.72762 | -48.61378 | 2313 ft | 0 kts | 339° |
| 2026-05-07 19:24 | -17.72752 | -48.61382 | 2313 ft | 2 kts | 339° |
| 2026-05-07 19:24 | -17.72730 | -48.61390 | 2314 ft | 3 kts | 338° |
| 2026-05-07 19:24 | -17.72700 | -48.61403 | 2315 ft | 5 kts | 337° |
| 2026-05-07 19:24 | -17.72660 | -48.61422 | 2317 ft | 7 kts | 323° |
| 2026-05-07 19:25 | -17.72660 | -48.61474 | 2319 ft | 8 kts | 244° |
| 2026-05-07 19:25 | -17.72643 | -48.61510 | 2320 ft | 3 kts | 335° |
| 2026-05-07 19:25 | -17.72623 | -48.61520 | 2320 ft | 2 kts | 336° |